Time;durP1;ratioP1;P1;durP2;ratioP2;P2;SDS_P1;SDS_P2;PMS_P1;PMS_P2;Temp;Humidity;BMP_temperature;BMP_pressure;BME280_temperature;BME280_humidity;BME280_pressure;Samples;Min_cycle;Max_cycle;Signal;HPM_P1;HPM_P2
2022/12/12 00:01:30;;;;;;;47.40;20.77;;;-0.60;99.90;;;;;;5052426;28;20048;-36
2022/12/12 00:03:56;;;;;;;42.97;20.77;;;-0.50;99.90;;;;;;5053445;28;20041;-34
2022/12/12 00:06:23;;;;;;;41.93;20.20;;;-0.40;99.90;;;;;;5053245;28;20045;-34
2022/12/12 00:08:50;;;;;;;44.13;22.07;;;-0.50;99.90;;;;;;5053542;28;20045;-34
2022/12/12 00:11:15;;;;;;;47.33;21.83;;;-0.50;99.90;;;;;;5053507;28;20052;-35
2022/12/12 00:13:41;;;;;;;48.20;21.47;;;-0.50;99.90;;;;;;5053522;28;20120;-35
2022/12/12 00:16:08;;;;;;;47.40;21.37;;;-0.40;99.90;;;;;;5052313;28;20048;-35
2022/12/12 00:18:38;;;;;;;50.23;20.77;;;-0.50;99.90;;;;;;5051924;28;20578;-34
2022/12/12 00:21:07;;;;;;;46.00;21.50;;;0.00;99.90;;;;;;5053952;28;20430;-34
2022/12/12 00:23:32;;;;;;;45.57;21.50;;;-0.30;99.90;;;;;;5053656;28;20061;-34
2022/12/12 00:26:04;;;;;;;47.80;21.13;;;-0.40;99.90;;;;;;5057557;28;20141;-34
2022/12/12 00:28:30;;;;;;;46.60;22.20;;;-0.50;99.90;;;;;;5057272;28;20053;-34
2022/12/12 00:30:56;;;;;;;47.77;22.03;;;-0.50;99.90;;;;;;5057542;28;20093;-34
2022/12/12 00:33:22;;;;;;;46.27;21.43;;;0.70;99.90;;;;;;5057425;28;20097;-35
2022/12/12 00:35:53;;;;;;;47.77;20.50;;;-0.50;99.90;;;;;;5057382;28;20077;-34
2022/12/12 00:38:21;;;;;;;48.70;20.57;;;-0.50;99.90;;;;;;5057252;28;20447;-35
2022/12/12 00:40:47;;;;;;;45.13;21.07;;;-0.40;99.90;;;;;;5055788;28;20506;-35
2022/12/12 00:43:13;;;;;;;44.47;21.40;;;-0.60;99.90;;;;;;5057232;28;20048;-34
2022/12/12 00:45:39;;;;;;;43.87;21.40;;;-0.60;99.90;;;;;;5057178;28;20200;-34
2022/12/12 00:48:06;;;;;;;49.37;21.83;;;-0.50;99.90;;;;;;5057387;28;20123;-36
2022/12/12 00:50:33;;;;;;;44.97;20.77;;;-0.50;99.90;;;;;;5057068;28;20048;-35
2022/12/12 00:52:59;;;;;;;50.27;23.30;;;-0.40;99.90;;;;;;5057088;28;20044;-34
2022/12/12 00:55:26;;;;;;;47.23;21.60;;;-0.30;99.90;;;;;;5057007;28;20544;-34
2022/12/12 00:57:52;;;;;;;47.17;19.93;;;-0.60;99.90;;;;;;5057220;28;20068;-34
2022/12/12 01:00:19;;;;;;;52.47;22.07;;;0.60;99.90;;;;;;5039038;28;20402;-34
2022/12/12 01:02:46;;;;;;;49.50;22.47;;;-0.60;99.90;;;;;;5056866;28;20040;-34
2022/12/12 01:05:13;;;;;;;51.43;21.87;;;0.60;99.90;;;;;;5056333;28;20357;-35
2022/12/12 01:07:38;;;;;;;46.57;22.23;;;-0.10;99.90;;;;;;5057050;28;20122;-34
2022/12/12 01:10:05;;;;;;;46.23;22.20;;;0.50;99.90;;;;;;5057008;28;20471;-34
2022/12/12 01:12:31;;;;;;;47.87;20.57;;;-0.60;99.90;;;;;;5055965;28;20049;-34
2022/12/12 01:14:57;;;;;;;50.23;23.13;;;-0.50;99.90;;;;;;5055931;28;20045;-34
2022/12/12 01:17:23;;;;;;;44.20;21.33;;;-0.50;99.90;;;;;;5056294;28;20052;-34
2022/12/12 01:19:48;;;;;;;47.90;21.07;;;-0.30;99.90;;;;;;5056518;28;20037;-33
2022/12/12 01:22:14;;;;;;;47.23;21.53;;;-0.50;99.90;;;;;;5056613;28;20045;-34
2022/12/12 01:24:40;;;;;;;49.20;21.37;;;-0.60;99.90;;;;;;5056753;28;20459;-34
2022/12/12 01:27:05;;;;;;;48.07;20.67;;;-0.50;99.90;;;;;;5055895;28;20060;-34
2022/12/12 01:29:33;;;;;;;43.10;20.37;;;-0.70;99.90;;;;;;5056418;28;20087;-33
2022/12/12 01:31:59;;;;;;;55.13;22.53;;;-0.40;99.90;;;;;;5056343;28;20044;-35
2022/12/12 01:34:24;;;;;;;48.40;22.07;;;-0.60;99.90;;;;;;5055984;28;20072;-35
2022/12/12 01:36:50;;;;;;;45.87;21.07;;;-0.60;99.90;;;;;;5056284;28;20056;-35
2022/12/12 01:39:16;;;;;;;49.83;21.40;;;-0.50;99.90;;;;;;5056416;28;20425;-34
2022/12/12 01:41:42;;;;;;;50.47;21.53;;;-0.60;99.90;;;;;;5056138;28;20509;-33
2022/12/12 01:44:39;;;;;;;48.53;21.17;;;-0.60;99.90;;;;;;5054924;28;20117;-34
2022/12/12 01:47:04;;;;;;;46.03;21.03;;;-0.70;99.90;;;;;;5052595;28;20506;-34
2022/12/12 01:49:32;;;;;;;40.43;19.57;;;-0.40;99.90;;;;;;5055979;28;20044;-33
2022/12/12 01:52:03;;;;;;;47.60;20.63;;;-0.50;99.90;;;;;;5055357;28;20120;-35
2022/12/12 01:54:32;;;;;;;42.60;20.03;;;-0.60;99.90;;;;;;5039639;28;20056;-34
2022/12/12 01:57:01;;;;;;;43.37;20.27;;;0.70;99.90;;;;;;5055867;28;20087;-34
2022/12/12 01:59:28;;;;;;;45.10;20.10;;;0.00;99.90;;;;;;5055837;28;20081;-34
2022/12/12 02:01:54;;;;;;;47.37;21.27;;;-0.30;99.90;;;;;;5055770;28;20049;-33
2022/12/12 02:04:21;;;;;;;50.93;21.10;;;-0.50;99.90;;;;;;5054582;28;20049;-33
2022/12/12 02:06:47;;;;;;;45.77;20.97;;;-0.60;99.90;;;;;;5055706;28;20123;-33
2022/12/12 02:09:15;;;;;;;43.07;20.53;;;-0.40;99.90;;;;;;5055621;28;20041;-34
2022/12/12 02:11:47;;;;;;;48.87;21.90;;;-0.60;99.90;;;;;;5055586;28;20398;-33
2022/12/12 02:14:18;;;;;;;42.80;20.50;;;-0.20;99.90;;;;;;5055519;28;20056;-33
2022/12/12 02:16:59;;;;;;;43.53;20.27;;;-0.50;99.90;;;;;;5054987;28;20116;-33
2022/12/12 02:19:49;;;;;;;44.43;20.57;;;-0.60;99.90;;;;;;5055971;28;20037;-33
2022/12/12 02:22:31;;;;;;;40.93;19.13;;;-0.60;99.90;;;;;;5055630;28;20045;-34
2022/12/12 02:25:11;;;;;;;45.07;21.33;;;-0.70;99.90;;;;;;5055942;28;20056;-33
2022/12/12 02:27:58;;;;;;;43.90;19.77;;;0.50;99.90;;;;;;5055888;28;20494;-34
2022/12/12 02:30:42;;;;;;;40.50;20.07;;;-0.70;99.90;;;;;;5071807;28;20100;-33
2022/12/12 02:33:20;;;;;;;39.47;19.37;;;-0.70;99.90;;;;;;5054539;28;20135;-33
2022/12/12 02:36:33;;;;;;;39.43;18.70;;;-0.70;99.90;;;;;;5055028;28;20467;-34
2022/12/12 02:39:15;;;;;;;42.45;19.83;;;-0.70;99.90;;;;;;5051125;28;20132;-33
2022/12/12 02:41:46;;;;;;;39.13;19.83;;;-0.70;99.90;;;;;;5053891;28;20124;-33
2022/12/12 02:44:17;;;;;;;43.50;19.13;;;-0.70;99.90;;;;;;5055881;28;20049;-34
2022/12/12 02:46:56;;;;;;;41.77;20.33;;;-0.70;99.90;;;;;;5054319;28;20140;-33
2022/12/12 02:49:29;;;;;;;46.93;19.87;;;-0.70;99.90;;;;;;5054255;28;20365;-33
2022/12/12 02:51:56;;;;;;;42.00;19.10;;;-0.60;99.90;;;;;;5054204;28;20096;-35
2022/12/12 02:54:23;;;;;;;40.50;19.37;;;-0.60;99.90;;;;;;5055575;28;20049;-33
2022/12/12 02:56:55;;;;;;;39.33;20.10;;;-0.40;99.90;;;;;;5054581;28;20395;-33
2022/12/12 02:59:41;;;;;;;39.87;18.97;;;-0.70;99.90;;;;;;5054068;28;20049;-34
2022/12/12 03:02:30;;;;;;;42.00;19.20;;;-0.70;99.90;;;;;;5036983;28;20049;-33
2022/12/12 03:08:07;;;;;;;42.40;19.02;;;-0.10;99.90;;;;;;5053903;28;20411;-32
2022/12/12 03:10:40;;;;;;;;;;;-0.70;99.90;;;;;;5054810;28;20076;-33
2022/12/12 03:13:25;;;;;;;44.28;18.38;;;0.50;99.90;;;;;;5054718;28;20357;-33
2022/12/12 03:16:09;;;;;;;43.47;19.43;;;-0.50;99.90;;;;;;5054949;28;20053;-33
2022/12/12 03:18:44;;;;;;;42.83;19.90;;;-0.80;99.90;;;;;;5054165;28;20075;-33
2022/12/12 03:21:19;;;;;;;41.50;18.73;;;-0.80;99.90;;;;;;5054323;28;20084;-33
2022/12/12 03:23:49;;;;;;;47.97;20.93;;;-0.70;99.90;;;;;;5054030;28;20049;-32
2022/12/12 03:26:29;;;;;;;45.37;19.03;;;-0.80;99.90;;;;;;5053962;28;20131;-33
2022/12/12 03:29:10;;;;;;;45.40;19.50;;;-0.70;99.90;;;;;;5053542;28;20059;-33
2022/12/12 03:31:40;;;;;;;42.83;20.90;;;-0.60;99.90;;;;;;5054209;28;20053;-34
2022/12/12 03:34:22;;;;;;;41.17;20.23;;;-0.40;99.90;;;;;;5054091;28;20094;-33
2022/12/12 03:36:54;;;;;;;38.43;17.90;;;-0.40;99.90;;;;;;5054371;28;20122;-33
2022/12/12 03:39:34;;;;;;;41.23;19.50;;;-0.70;99.90;;;;;;5054562;28;20048;-32
2022/12/12 03:42:07;;;;;;;40.40;18.73;;;0.00;99.90;;;;;;5053553;28;20387;-33
2022/12/12 03:44:56;;;;;;;41.07;19.50;;;-0.70;99.90;;;;;;5036122;28;20159;-33
2022/12/12 03:47:34;;;;;;;36.87;17.73;;;-0.60;99.90;;;;;;5053895;28;20056;-33
2022/12/12 03:50:15;;;;;;;41.53;19.70;;;-0.70;99.90;;;;;;5052972;28;20069;-33
2022/12/12 03:52:55;;;;;;;43.13;19.03;;;-0.60;99.90;;;;;;5053672;28;20041;-32
2022/12/12 03:55:33;;;;;;;41.90;18.87;;;-0.70;99.90;;;;;;5054377;28;20049;-33
2022/12/12 03:58:09;;;;;;;38.30;18.40;;;-0.30;99.90;;;;;;5053130;28;20395;-33
2022/12/12 04:00:36;;;;;;;38.67;18.40;;;-0.70;99.90;;;;;;5052397;28;20126;-32
2022/12/12 04:03:14;;;;;;;41.73;19.20;;;-0.40;99.90;;;;;;5053625;28;20045;-32
2022/12/12 04:06:27;;;;;;;41.20;18.83;;;-0.70;99.90;;;;;;5054182;28;20049;-34
2022/12/12 04:14:57;;;;;;;37.23;17.43;;;-0.60;99.90;;;;;;5053510;28;20053;-34
2022/12/12 04:18:00;;;;;;;37.10;18.10;;;-0.60;99.90;;;;;;5053535;28;20060;-32
2022/12/12 04:23:52;;;;;;;37.73;18.50;;;-0.60;99.90;;;;;;5053029;28;20441;-32
2022/12/12 04:26:39;;;;;;;38.80;18.10;;;-0.70;99.90;;;;;;5053922;28;20055;-33
2022/12/12 04:29:40;;;;;;;40.37;18.13;;;-0.70;99.90;;;;;;5053890;28;20361;-32
2022/12/12 04:32:14;;;;;;;37.10;17.90;;;-0.70;99.90;;;;;;5030174;28;20057;-33
2022/12/12 04:34:58;;;;;;;36.93;18.63;;;-0.60;99.90;;;;;;5053647;28;20049;-33
2022/12/12 04:37:30;;;;;;;34.67;17.52;;;-0.70;99.90;;;;;;5053609;28;20079;-32
2022/12/12 04:39:59;;;;;;;38.67;18.42;;;-0.70;99.90;;;;;;5053201;28;20163;-33
2022/12/12 04:42:31;;;;;;;38.77;17.50;;;0.40;99.90;;;;;;5052818;28;20041;-32
2022/12/12 04:45:06;;;;;;;36.40;17.90;;;-0.40;99.90;;;;;;5054084;28;20422;-33
2022/12/12 04:47:33;;;;;;;36.93;17.13;;;-0.70;99.90;;;;;;5053103;28;20049;-32
2022/12/12 04:50:01;;;;;;;37.67;19.13;;;-0.60;99.90;;;;;;5053429;28;20049;-33
2022/12/12 04:52:29;;;;;;;37.60;18.23;;;-0.70;99.90;;;;;;5053188;28;20057;-32
2022/12/12 04:55:30;;;;;;;35.83;17.90;;;-0.70;99.90;;;;;;5053117;28;20151;-33
2022/12/12 04:57:56;;;;;;;35.60;17.23;;;-0.70;99.90;;;;;;5043837;28;20052;-32
2022/12/12 05:00:24;;;;;;;35.13;16.67;;;-0.70;99.90;;;;;;5035251;28;20138;-32
2022/12/12 05:02:58;;;;;;;32.40;16.53;;;-0.70;99.90;;;;;;5052180;28;20127;-32
2022/12/12 05:05:52;;;;;;;38.13;18.27;;;-0.60;99.90;;;;;;5053612;28;20045;-32
2022/12/12 05:08:23;;;;;;;34.97;17.88;;;-0.70;99.90;;;;;;5053871;28;20080;-32
2022/12/12 05:10:53;;;;;;;34.17;16.67;;;-0.70;99.90;;;;;;5056333;28;20041;-32
2022/12/12 05:13:26;;;;;;;32.87;16.40;;;-0.50;99.90;;;;;;5057268;28;20049;-33
2022/12/12 05:15:55;;;;;;;33.60;16.73;;;-0.60;99.90;;;;;;5056565;28;20094;-32
2022/12/12 05:18:21;;;;;;;35.47;17.27;;;-0.50;99.90;;;;;;5055361;28;20045;-32
2022/12/12 05:20:47;;;;;;;36.40;16.30;;;-0.80;99.90;;;;;;5056838;28;20045;-33
2022/12/12 05:23:13;;;;;;;34.97;17.53;;;-0.30;99.90;;;;;;5056731;28;20056;-32
2022/12/12 05:25:39;;;;;;;33.53;17.50;;;-0.60;99.90;;;;;;5055211;28;20128;-32
2022/12/12 05:28:05;;;;;;;33.17;15.97;;;-0.50;99.90;;;;;;5054680;28;20057;-32
2022/12/12 05:30:31;;;;;;;36.47;17.80;;;-0.70;99.90;;;;;;5057238;28;20383;-32
2022/12/12 05:32:57;;;;;;;35.13;17.43;;;-0.70;99.90;;;;;;5055361;28;20480;-32
2022/12/12 05:35:23;;;;;;;35.70;18.80;;;-0.70;99.90;;;;;;5055080;28;20098;-32
2022/12/12 05:37:49;;;;;;;35.73;17.00;;;0.40;99.90;;;;;;5056230;28;20036;-32
2022/12/12 05:40:15;;;;;;;34.07;17.03;;;0.30;99.90;;;;;;5056138;28;20044;-32
2022/12/12 05:42:41;;;;;;;32.40;15.67;;;-0.40;99.90;;;;;;5055989;28;20056;-33
2022/12/12 05:45:08;;;;;;;37.30;16.97;;;-0.70;99.90;;;;;;5055921;28;20076;-32
2022/12/12 05:47:34;;;;;;;35.23;15.90;;;-0.80;99.90;;;;;;5056008;28;20048;-32
2022/12/12 05:50:00;;;;;;;30.70;15.83;;;0.00;99.90;;;;;;5055041;28;20041;-32
2022/12/12 05:52:26;;;;;;;35.03;16.73;;;-0.10;99.90;;;;;;5055948;28;20106;-32
2022/12/12 05:54:52;;;;;;;35.47;15.70;;;-0.80;99.90;;;;;;5055919;28;20045;-32
2022/12/12 05:57:18;;;;;;;37.03;18.07;;;-0.90;99.90;;;;;;5055916;28;20458;-32
2022/12/12 05:59:45;;;;;;;32.97;17.20;;;-0.90;99.90;;;;;;5055803;28;20131;-32
2022/12/12 06:02:11;;;;;;;33.87;17.60;;;-0.80;99.90;;;;;;5056594;28;20064;-32
2022/12/12 06:04:37;;;;;;;34.53;18.00;;;-0.60;99.90;;;;;;5055753;28;20458;-32
2022/12/12 06:07:04;;;;;;;36.00;17.23;;;-0.90;99.90;;;;;;5055395;28;20527;-32
2022/12/12 06:09:29;;;;;;;34.63;16.93;;;-0.90;99.90;;;;;;5056164;28;20442;-32
2022/12/12 06:11:55;;;;;;;35.23;16.97;;;-0.70;99.90;;;;;;5055827;28;20052;-32
2022/12/12 06:14:21;;;;;;;33.77;16.80;;;-0.90;99.90;;;;;;5055554;28;20049;-32
2022/12/12 06:16:46;;;;;;;36.17;18.03;;;-0.80;99.90;;;;;;5055467;28;20041;-31
2022/12/12 06:19:12;;;;;;;32.57;15.63;;;-0.90;99.90;;;;;;5055378;28;20087;-32
2022/12/12 06:21:38;;;;;;;34.10;15.93;;;-0.80;99.90;;;;;;5054316;28;20049;-32
2022/12/12 06:24:07;;;;;;;32.47;16.23;;;-1.00;99.90;;;;;;5055432;28;20044;-31
2022/12/12 06:26:32;;;;;;;35.90;16.37;;;-1.00;99.90;;;;;;5055947;28;20045;-31
2022/12/12 06:28:58;;;;;;;32.13;16.00;;;-1.00;99.90;;;;;;5055531;28;20502;-31
2022/12/12 06:31:24;;;;;;;33.73;16.07;;;-1.00;99.90;;;;;;5054108;28;20140;-32
2022/12/12 06:33:53;;;;;;;34.10;16.77;;;-0.50;99.90;;;;;;5054014;28;20493;-32
2022/12/12 06:36:23;;;;;;;34.63;16.00;;;-0.90;99.90;;;;;;5055196;28;20183;-31
2022/12/12 06:38:54;;;;;;;34.43;17.13;;;-1.10;99.90;;;;;;5055080;28;20076;-31
2022/12/12 06:41:21;;;;;;;32.80;16.43;;;-0.60;99.90;;;;;;5055628;28;20464;-31
2022/12/12 06:43:47;;;;;;;32.57;16.30;;;-0.40;99.90;;;;;;5055000;28;20045;-31
2022/12/12 06:46:16;;;;;;;32.13;16.53;;;-0.90;99.90;;;;;;5053994;28;20506;-33
2022/12/12 06:48:43;;;;;;;31.80;16.57;;;-0.90;99.90;;;;;;5054920;28;20088;-31
2022/12/12 06:51:12;;;;;;;34.47;17.00;;;-0.90;99.90;;;;;;5054758;28;20056;-32
2022/12/12 06:53:37;;;;;;;33.23;16.90;;;-1.00;99.90;;;;;;5055003;28;20191;-32
2022/12/12 06:56:12;;;;;;;34.30;17.50;;;-0.90;99.90;;;;;;5054736;28;20502;-32
2022/12/12 06:58:37;;;;;;;34.80;17.47;;;-0.90;99.90;;;;;;5055528;28;20430;-31
2022/12/12 07:01:04;;;;;;;31.57;16.87;;;-0.80;99.90;;;;;;5054691;28;20075;-31
2022/12/12 07:03:30;;;;;;;35.40;17.17;;;-0.90;99.90;;;;;;5053611;28;20040;-31
2022/12/12 07:05:56;;;;;;;36.30;17.83;;;-0.90;99.90;;;;;;5055338;28;20106;-31
2022/12/12 07:08:21;;;;;;;35.67;17.67;;;-0.50;99.90;;;;;;5036981;28;20383;-31
2022/12/12 07:10:47;;;;;;;32.87;17.53;;;1.10;99.90;;;;;;5054172;28;20139;-31
2022/12/12 07:13:13;;;;;;;33.73;16.27;;;-0.40;99.90;;;;;;5054421;28;20044;-31
2022/12/12 07:15:47;;;;;;;34.40;16.60;;;-0.50;99.90;;;;;;5054691;28;20045;-31
2022/12/12 07:18:14;;;;;;;31.60;17.70;;;-0.40;99.90;;;;;;5053136;28;20048;-31
2022/12/12 07:20:41;;;;;;;32.27;16.97;;;-0.80;99.90;;;;;;5052739;28;20491;-32
2022/12/12 07:23:07;;;;;;;31.57;16.63;;;-0.80;99.90;;;;;;5054196;28;20462;-32
2022/12/12 07:25:39;;;;;;;32.87;16.27;;;-0.80;99.90;;;;;;5053257;28;20056;-31
2022/12/12 07:28:06;;;;;;;33.43;16.73;;;-0.80;99.90;;;;;;5054225;28;20057;-32
2022/12/12 07:30:33;;;;;;;31.87;16.30;;;-0.80;99.90;;;;;;5054173;28;20064;-31
2022/12/12 07:32:59;;;;;;;33.17;16.27;;;-0.90;99.90;;;;;;5052684;28;20045;-32
2022/12/12 07:35:24;;;;;;;34.73;16.63;;;-0.90;99.90;;;;;;5054319;28;20067;-33
2022/12/12 07:37:51;;;;;;;35.20;17.73;;;-0.50;99.90;;;;;;5054008;28;20044;-31
2022/12/12 07:40:17;;;;;;;31.30;15.43;;;-0.60;99.90;;;;;;5052682;28;20041;-31
2022/12/12 07:42:42;;;;;;;33.50;17.40;;;-0.80;99.90;;;;;;5054327;28;20045;-32
2022/12/12 07:45:08;;;;;;;30.23;15.57;;;-0.90;99.90;;;;;;5053833;28;20049;-32
2022/12/12 07:47:34;;;;;;;34.47;16.60;;;-0.90;99.90;;;;;;5037068;28;20159;-31
2022/12/12 07:50:00;;;;;;;31.90;16.83;;;-0.60;99.90;;;;;;5053667;28;20072;-32
2022/12/12 07:52:25;;;;;;;33.70;16.10;;;-1.00;99.90;;;;;;5036341;28;20059;-32
2022/12/12 07:54:54;;;;;;;33.87;17.30;;;-0.90;99.90;;;;;;5053815;28;20126;-31
2022/12/12 07:57:20;;;;;;;32.33;15.90;;;-0.70;99.90;;;;;;5053763;28;20040;-32
2022/12/12 07:59:46;;;;;;;35.23;17.60;;;-0.80;99.90;;;;;;5053572;28;20037;-32
2022/12/12 08:02:12;;;;;;;35.03;16.73;;;-0.60;99.90;;;;;;5052657;28;20100;-32
2022/12/12 08:04:38;;;;;;;32.97;16.57;;;-0.70;99.90;;;;;;5053626;28;20053;-31
2022/12/12 08:07:03;;;;;;;31.07;16.53;;;-0.60;99.90;;;;;;5053542;28;20052;-31
2022/12/12 08:09:29;;;;;;;29.83;16.07;;;-0.70;99.90;;;;;;5053579;28;20041;-32
2022/12/12 08:11:57;;;;;;;31.87;17.10;;;-0.70;99.90;;;;;;5052290;28;20044;-31
2022/12/12 08:14:24;;;;;;;29.37;15.70;;;-0.70;99.90;;;;;;5053736;28;20546;-32
2022/12/12 08:16:49;;;;;;;32.63;16.23;;;-0.80;99.90;;;;;;5052379;28;20151;-32
2022/12/12 08:19:15;;;;;;;33.87;17.90;;;-0.80;99.90;;;;;;5053427;28;20127;-32
2022/12/12 08:21:41;;;;;;;29.77;15.27;;;-0.70;99.90;;;;;;5053659;28;20099;-31
2022/12/12 08:24:11;;;;;;;31.70;16.70;;;-0.80;99.90;;;;;;5053442;28;20049;-32
2022/12/12 08:26:36;;;;;;;31.20;16.70;;;-0.70;99.90;;;;;;5053400;28;20091;-31
2022/12/12 08:29:03;;;;;;;29.27;15.93;;;-0.80;99.90;;;;;;5052740;28;20096;-33
2022/12/12 08:31:29;;;;;;;31.63;17.17;;;-0.10;99.90;;;;;;5052189;28;20092;-32
2022/12/12 08:33:55;;;;;;;27.53;15.23;;;0.00;99.90;;;;;;5053359;28;20083;-31
2022/12/12 08:36:31;;;;;;;31.23;16.43;;;-0.70;99.90;;;;;;5053613;28;20408;-31
2022/12/12 08:39:02;;;;;;;33.00;16.80;;;-0.60;99.90;;;;;;5052598;28;20048;-32
2022/12/12 08:41:28;;;;;;;34.43;17.40;;;-0.60;99.90;;;;;;5053334;28;20053;-32
2022/12/12 08:43:53;;;;;;;30.63;16.27;;;-0.50;99.90;;;;;;5052451;28;20075;-31
2022/12/12 08:46:20;;;;;;;29.57;16.77;;;-0.70;99.90;;;;;;5057209;28;20175;-32
2022/12/12 08:48:47;;;;;;;31.53;16.43;;;-0.70;99.90;;;;;;5057766;28;20103;-32
2022/12/12 08:51:16;;;;;;;33.53;18.17;;;0.40;99.90;;;;;;5057195;28;20056;-31
2022/12/12 08:53:47;;;;;;;34.73;18.97;;;-0.80;99.90;;;;;;5057103;28;20145;-31
2022/12/12 08:56:13;;;;;;;35.17;18.60;;;-0.60;99.90;;;;;;5057701;28;20155;-32
2022/12/12 08:58:39;;;;;;;30.43;17.60;;;-0.90;99.90;;;;;;5055483;28;20479;-31
2022/12/12 09:01:17;;;;;;;36.83;18.03;;;-0.80;99.90;;;;;;5057015;28;20130;-33
2022/12/12 09:03:43;;;;;;;32.80;17.17;;;-0.70;99.90;;;;;;5039678;28;20053;-32
2022/12/12 09:06:09;;;;;;;30.43;17.60;;;-0.50;99.90;;;;;;5055784;28;20059;-32
2022/12/12 09:08:36;;;;;;;32.13;17.30;;;-0.60;99.90;;;;;;5055627;28;20044;-32
2022/12/12 09:11:02;;;;;;;29.23;16.73;;;-0.50;99.90;;;;;;5055834;28;20437;-32
2022/12/12 09:13:29;;;;;;;32.43;18.30;;;-0.20;99.90;;;;;;5056807;28;20099;-32
2022/12/12 09:15:55;;;;;;;32.30;17.83;;;-0.50;99.90;;;;;;5055563;28;20049;-32
2022/12/12 09:18:21;;;;;;;30.47;18.10;;;-0.60;99.90;;;;;;5056629;28;20372;-31
2022/12/12 09:20:51;;;;;;;34.23;19.20;;;-0.40;99.90;;;;;;5056394;28;20049;-32
2022/12/12 09:23:18;;;;;;;29.87;17.17;;;-0.50;99.90;;;;;;5056614;28;20495;-32
2022/12/12 09:25:44;;;;;;;32.00;17.60;;;-0.40;99.90;;;;;;5056602;28;20064;-33
2022/12/12 09:28:15;;;;;;;28.90;16.37;;;-0.50;99.90;;;;;;5056444;28;20057;-32
2022/12/12 09:30:41;;;;;;;28.80;16.67;;;1.10;99.90;;;;;;5056069;28;20057;-32
2022/12/12 09:33:07;;;;;;;28.40;15.50;;;-0.40;99.90;;;;;;5055167;28;20049;-32
2022/12/12 09:35:33;;;;;;;31.27;16.67;;;-0.20;99.90;;;;;;5056322;28;20045;-33
2022/12/12 09:37:59;;;;;;;29.87;16.07;;;-0.40;99.90;;;;;;5055608;28;20151;-32
2022/12/12 09:40:46;;;;;;;27.60;15.80;;;-0.40;99.90;;;;;;5056208;28;20124;-32
2022/12/12 09:43:18;;;;;;;29.87;16.80;;;-0.40;99.90;;;;;;5056131;28;20056;-33
2022/12/12 09:45:45;;;;;;;33.37;17.47;;;-0.50;99.90;;;;;;5055771;28;20479;-32
2022/12/12 09:48:35;;;;;;;29.77;16.77;;;-0.50;99.90;;;;;;5038513;28;20506;-33
2022/12/12 09:51:01;;;;;;;29.40;16.00;;;-0.40;99.90;;;;;;5055694;28;20083;-32
2022/12/12 09:53:27;;;;;;;33.20;17.23;;;-0.50;99.90;;;;;;5056014;28;20049;-33
2022/12/12 09:55:56;;;;;;;31.77;17.07;;;0.20;99.90;;;;;;5056453;28;20098;-32
2022/12/12 09:58:40;;;;;;;30.70;16.60;;;-0.40;99.90;;;;;;5055850;28;20048;-33
2022/12/12 10:01:19;;;;;;;28.97;16.00;;;-0.40;99.90;;;;;;5055895;28;20380;-33
2022/12/12 10:03:48;;;;;;;30.07;17.07;;;-0.50;99.90;;;;;;5055673;28;20045;-33
2022/12/12 10:06:16;;;;;;;30.67;18.23;;;-0.40;99.90;;;;;;5055756;28;20071;-33
2022/12/12 10:09:00;;;;;;;29.37;16.70;;;-0.20;99.90;;;;;;5054512;28;20446;-33
2022/12/12 10:14:17;;;;;;;31.50;17.90;;;0.60;99.90;;;;;;5055940;28;20045;-34
2022/12/12 10:16:44;;;;;;;29.07;16.87;;;1.00;99.90;;;;;;5055530;28;20053;-33
2022/12/12 10:19:32;;;;;;;29.60;16.70;;;0.40;99.90;;;;;;5054282;28;20510;-33
2022/12/12 10:22:07;;;;;;;30.77;15.77;;;0.70;99.90;;;;;;5055652;28;20056;-34
2022/12/12 10:24:40;;;;;;;28.80;16.43;;;-0.10;99.90;;;;;;5055465;28;20049;-34
2022/12/12 10:27:13;;;;;;;26.30;15.93;;;-0.20;99.90;;;;;;5055940;28;20053;-33
2022/12/12 10:29:44;;;;;;;28.13;17.73;;;0.00;99.90;;;;;;5055895;28;20045;-33
2022/12/12 10:32:25;;;;;;;27.33;15.30;;;1.20;99.90;;;;;;5055316;28;20053;-34
2022/12/12 10:35:00;;;;;;;24.35;15.90;;;0.10;99.90;;;;;;5055307;28;20052;-33
2022/12/12 10:37:28;;;;;;;26.63;15.45;;;0.10;99.90;;;;;;5037582;28;20579;-33
2022/12/12 10:40:10;;;;;;;24.15;14.68;;;0.10;99.90;;;;;;5054721;28;20552;-34
2022/12/12 10:43:21;;;;;;;29.30;15.47;;;0.20;99.90;;;;;;5055710;28;20461;-33
2022/12/12 10:46:37;;;;;;;25.10;14.50;;;0.30;99.90;;;;;;5055646;28;20045;-34
2022/12/12 10:49:16;;;;;;;27.05;14.82;;;0.30;99.90;;;;;;5013606;28;20535;-34
2022/12/12 10:51:44;;;;;;;26.97;15.60;;;0.40;99.90;;;;;;5053120;28;20143;-34
2022/12/12 10:54:20;;;;;;;26.65;14.73;;;0.60;99.90;;;;;;5054882;28;20457;-33
2022/12/12 10:57:10;;;;;;;22.77;14.15;;;0.70;99.90;;;;;;5054841;28;20044;-33
2022/12/12 10:59:45;;;;;;;26.90;15.43;;;0.50;99.90;;;;;;5054733;28;20044;-33
2022/12/12 11:02:28;;;;;;;24.58;14.93;;;0.70;99.90;;;;;;5053500;28;20048;-33
2022/12/12 11:05:01;;;;;;;22.88;14.38;;;0.60;99.90;;;;;;5055009;28;20140;-33
2022/12/12 11:07:27;;;;;;;;;;;1.90;99.90;;;;;;5055132;28;20045;-33
2022/12/12 11:09:54;;;;;;;27.85;15.85;;;1.40;99.90;;;;;;5036752;28;20295;-33
2022/12/12 11:12:20;;;;;;;23.05;13.57;;;0.80;99.90;;;;;;5054491;28;20045;-32
2022/12/12 11:14:50;;;;;;;23.30;14.35;;;1.40;99.90;;;;;;5053552;28;20080;-32
2022/12/12 11:17:32;;;;;;;26.50;15.13;;;0.90;99.90;;;;;;5054040;28;20059;-32
2022/12/12 11:20:00;;;;;;;23.67;14.55;;;0.90;99.90;;;;;;5053199;28;20044;-32
2022/12/12 11:22:29;;;;;;;23.50;14.60;;;0.90;99.90;;;;;;5053245;28;20475;-32
2022/12/12 11:24:55;;;;;;;23.77;14.82;;;0.80;99.90;;;;;;5055101;28;20053;-33
2022/12/12 11:27:30;;;;;;;33.88;19.40;;;0.80;99.90;;;;;;5053959;28;20052;-33
2022/12/12 11:30:02;;;;;;;39.60;22.00;;;0.90;99.90;;;;;;5054259;28;20045;-33
2022/12/12 11:32:36;;;;;;;32.05;19.48;;;1.00;99.90;;;;;;5053219;28;20088;-32
2022/12/12 11:35:07;;;;;;;31.80;19.33;;;1.00;99.90;;;;;;5053477;28;20045;-32
2022/12/12 11:37:46;;;;;;;38.95;25.02;;;1.00;99.90;;;;;;5053820;28;20572;-32
2022/12/12 11:40:30;;;;;;;46.85;30.75;;;1.00;99.90;;;;;;5054007;28;20041;-32
2022/12/12 11:43:07;;;;;;;28.35;17.83;;;1.00;99.90;;;;;;5053996;28;20079;-32
2022/12/12 11:45:32;;;;;;;23.88;15.23;;;1.00;99.90;;;;;;5053644;28;20479;-32
2022/12/12 11:47:58;;;;;;;24.98;14.63;;;1.10;99.90;;;;;;5054725;28;20091;-32
2022/12/12 11:50:27;;;;;;;21.83;14.02;;;1.20;99.90;;;;;;5053890;28;20079;-33
2022/12/12 11:53:00;;;;;;;22.70;13.98;;;1.20;99.90;;;;;;5053803;28;20049;-33
2022/12/12 11:55:34;;;;;;;26.30;14.38;;;1.20;99.90;;;;;;5054671;28;20114;-33
2022/12/12 11:58:21;;;;;;;21.88;13.90;;;1.20;99.90;;;;;;5053873;28;20096;-32
2022/12/12 12:01:20;;;;;;;23.45;13.43;;;1.20;99.90;;;;;;5035902;28;20088;-33
2022/12/12 12:04:17;;;;;;;21.38;12.88;;;1.20;99.90;;;;;;5054277;28;20041;-32
2022/12/12 12:07:01;;;;;;;22.95;13.27;;;1.30;99.90;;;;;;5052776;28;20407;-32
2022/12/12 12:09:43;;;;;;;22.75;14.30;;;1.30;99.90;;;;;;5054508;28;20048;-32
2022/12/12 12:12:16;;;;;;;20.08;12.50;;;1.30;99.90;;;;;;5053351;28;20055;-32
2022/12/12 12:15:00;;;;;;;21.00;13.15;;;1.30;99.90;;;;;;5054163;28;20391;-32
2022/12/12 12:17:49;;;;;;;20.27;12.98;;;1.30;99.90;;;;;;5053571;28;20051;-32
2022/12/12 12:20:31;;;;;;;22.42;13.57;;;1.30;99.90;;;;;;5052620;28;20041;-33
2022/12/12 12:23:12;;;;;;;21.73;13.75;;;1.20;99.90;;;;;;5053837;28;20051;-32
2022/12/12 12:26:03;;;;;;;21.95;13.85;;;1.30;99.90;;;;;;5054040;28;20049;-33
2022/12/12 12:28:37;;;;;;;21.98;13.18;;;1.20;99.90;;;;;;5021076;28;20396;-32
2022/12/12 12:31:19;;;;;;;23.45;13.73;;;1.30;99.90;;;;;;5053455;28;20064;-32
2022/12/12 12:34:17;;;;;;;23.25;13.90;;;1.30;99.90;;;;;;5054022;28;20045;-33
2022/12/12 12:37:07;;;;;;;21.55;13.25;;;1.30;99.90;;;;;;5016569;28;20488;-32
2022/12/12 12:40:02;;;;;;;22.90;12.45;;;1.40;99.90;;;;;;5053950;28;20065;-33
2022/12/12 12:42:30;;;;;;;20.60;13.10;;;1.40;99.90;;;;;;5053899;28;20476;-32
2022/12/12 12:45:05;;;;;;;24.38;14.80;;;1.40;99.90;;;;;;5068777;28;20384;-33
2022/12/12 12:47:41;;;;;;;23.10;14.68;;;1.40;99.90;;;;;;5053864;28;20053;-33
2022/12/12 12:50:12;;;;;;;34.83;20.15;;;1.30;99.90;;;;;;5053291;28;20045;-32
2022/12/12 12:52:44;;;;;;;33.17;21.25;;;1.20;99.90;;;;;;5051920;28;20049;-32
2022/12/12 12:55:21;;;;;;;37.58;26.60;;;1.20;99.90;;;;;;5053209;28;20483;-32
2022/12/12 12:57:49;;;;;;;28.17;18.58;;;1.20;99.90;;;;;;5053193;28;20094;-32
2022/12/12 13:00:18;;;;;;;24.42;14.23;;;1.10;99.90;;;;;;5035363;28;20119;-32
2022/12/12 13:03:01;;;;;;;28.00;17.48;;;1.00;99.90;;;;;;5052986;28;20076;-33
2022/12/12 13:05:39;;;;;;;22.63;14.40;;;1.00;99.90;;;;;;5053154;28;20087;-32
2022/12/12 13:08:27;;;;;;;26.58;15.23;;;1.00;99.90;;;;;;5052138;28;20049;-33
2022/12/12 13:11:05;;;;;;;23.02;14.00;;;0.90;99.90;;;;;;5053119;28;20045;-32